Terminal Aerodrome Forecast
Issued by NWS

Home | Current Version | Previous Version | Graphics & Text | Print | Product List | Glossary On
Versions: 1 2 3 4 5 6 7 8 9 10 11 12 13 14 15 16 17 18
000
FTUS43 KGRB 011100
TAFCWA
TAF
KCWA 011136Z 0112/0212 05010G18KT 6SM -SN BKN035 OVC100
      TEMPO 0112/0116 3SM -SN BKN025
     FM011600 04011G18KT P6SM SCT025 BKN070
     FM020000 01009KT P6SM SCT030 BKN100
     FM020600 35006KT P6SM FEW100=

USA.gov is the U.S. government's official web portal to all federal, state and local government web resources and services.